Time;durP1;ratioP1;P1;durP2;ratioP2;P2;SDS_P1;SDS_P2;PMS_P1;PMS_P2;Temp;Humidity;BMP_temperature;BMP_pressure;BME280_temperature;BME280_humidity;BME280_pressure;Samples;Min_cycle;Max_cycle;Signal;HPM_P1;HPM_P2
2021/12/27 00:00:24;;;;;;;69.97;36.70;;;3.10;68.20;;;;;;5071848;28;20044;-71
2021/12/27 00:02:56;;;;;;;62.33;34.83;;;3.10;68.30;;;;;;5071534;28;20083;-74
2021/12/27 00:05:22;;;;;;;67.97;35.03;;;3.10;68.50;;;;;;5073260;28;20028;-71
2021/12/27 00:07:50;;;;;;;65.05;36.50;;;3.20;68.60;;;;;;5070419;28;20123;-71
2021/12/27 00:10:17;;;;;;;64.63;34.35;;;3.10;68.40;;;;;;5073113;28;20178;-70
2021/12/27 00:12:43;;;;;;;67.85;36.70;;;3.10;68.30;;;;;;5073895;28;20035;-70
2021/12/27 00:15:10;;;;;;;63.05;33.83;;;3.00;68.40;;;;;;5072881;28;20029;-71
2021/12/27 00:17:36;;;;;;;64.55;34.30;;;2.90;68.70;;;;;;5073487;28;20032;-70
2021/12/27 00:20:03;;;;;;;63.13;34.60;;;2.90;68.90;;;;;;5072026;28;20024;-71
2021/12/27 00:22:29;;;;;;;64.65;34.70;;;2.90;69.00;;;;;;5074640;28;20032;-70
2021/12/27 00:24:55;;;;;;;57.90;33.63;;;2.90;69.00;;;;;;5071453;28;20037;-72
2021/12/27 00:27:21;;;;;;;58.50;31.92;;;3.10;69.00;;;;;;5062870;28;20033;-70
2021/12/27 00:29:46;;;;;;;61.85;32.20;;;3.20;68.70;;;;;;5071178;28;20052;-70
2021/12/27 00:32:12;;;;;;;57.20;32.45;;;3.30;68.30;;;;;;5072839;28;20393;-70
2021/12/27 00:34:38;;;;;;;56.38;32.00;;;3.30;67.90;;;;;;5072382;28;20052;-71
2021/12/27 00:37:05;;;;;;;61.72;32.53;;;3.20;67.60;;;;;;5073604;28;20096;-70
2021/12/27 00:39:32;;;;;;;65.22;32.90;;;3.20;68.10;;;;;;5073574;28;20059;-70
2021/12/27 00:41:59;;;;;;;51.95;30.30;;;3.30;67.80;;;;;;5072967;28;20427;-71
2021/12/27 00:44:24;;;;;;;66.38;33.75;;;3.30;67.60;;;;;;5074899;28;20059;-70
2021/12/27 00:46:51;;;;;;;55.83;30.88;;;3.30;67.60;;;;;;5072159;28;20017;-72
2021/12/27 00:49:17;;;;;;;62.65;32.22;;;3.30;67.50;;;;;;5071445;28;20036;-71
2021/12/27 00:51:43;;;;;;;61.25;32.15;;;3.30;67.50;;;;;;5072759;28;20450;-71
2021/12/27 00:54:08;;;;;;;60.65;32.63;;;3.30;67.40;;;;;;5071343;28;20060;-71
2021/12/27 00:56:34;;;;;;;58.85;33.08;;;3.30;67.40;;;;;;5074153;28;20028;-71
2021/12/27 00:59:00;;;;;;;54.70;31.23;;;3.30;67.40;;;;;;5074698;28;20016;-71
2021/12/27 01:01:25;;;;;;;60.10;30.73;;;3.40;67.40;;;;;;5073486;28;20028;-70
2021/12/27 01:03:52;;;;;;;64.60;33.50;;;3.40;67.20;;;;;;5073378;28;20059;-71
2021/12/27 01:06:17;;;;;;;67.55;34.47;;;3.40;67.20;;;;;;5071269;28;20021;-71
2021/12/27 01:08:43;;;;;;;63.60;34.45;;;3.40;67.20;;;;;;5073463;28;20028;-71
2021/12/27 01:13:44;;;;;;;65.90;34.78;;;3.40;67.20;;;;;;5073499;28;20075;-72
2021/12/27 01:16:12;;;;;;;62.47;33.47;;;3.40;67.30;;;;;;5068627;28;20033;-70
2021/12/27 01:18:45;;;;;;;61.55;32.47;;;3.40;67.20;;;;;;5075071;28;20411;-70
2021/12/27 01:21:11;;;;;;;61.63;32.50;;;3.40;67.10;;;;;;5070638;28;20462;-71
2021/12/27 01:23:37;;;;;;;64.30;32.75;;;3.40;67.10;;;;;;5073071;28;20279;-71
2021/12/27 01:26:03;;;;;;;64.45;34.22;;;3.50;67.00;;;;;;5073094;28;20032;-71
2021/12/27 01:28:28;;;;;;;59.30;33.30;;;3.50;66.90;;;;;;5071147;28;20126;-71
2021/12/27 01:30:54;;;;;;;62.70;33.70;;;3.40;66.90;;;;;;5072825;28;20095;-71
2021/12/27 01:33:23;;;;;;;58.38;31.25;;;3.50;67.00;;;;;;5072830;28;20037;-71
2021/12/27 01:35:48;;;;;;;55.25;31.98;;;3.50;66.80;;;;;;5072859;28;20058;-71
2021/12/27 01:38:15;;;;;;;61.17;33.47;;;3.50;66.70;;;;;;5072290;28;20107;-71
2021/12/27 01:40:44;;;;;;;66.57;34.97;;;3.40;66.30;;;;;;5072649;28;20100;-70
2021/12/27 01:43:13;;;;;;;60.60;33.33;;;3.20;67.00;;;;;;5071795;28;20029;-71
2021/12/27 01:45:44;;;;;;;57.90;34.00;;;3.10;67.60;;;;;;5072714;28;20037;-71
2021/12/27 01:48:11;;;;;;;57.33;33.72;;;3.00;67.80;;;;;;5056543;28;20043;-70
2021/12/27 01:50:40;;;;;;;61.72;34.20;;;3.00;68.10;;;;;;5077954;28;20025;-70
2021/12/27 01:53:06;;;;;;;63.50;34.15;;;3.00;68.30;;;;;;5069466;28;20048;-72
2021/12/27 01:55:33;;;;;;;60.47;32.33;;;2.90;68.60;;;;;;5068045;28;20103;-71
2021/12/27 01:57:59;;;;;;;65.68;33.83;;;3.00;68.80;;;;;;5072510;28;20458;-72
2021/12/27 02:00:25;;;;;;;62.58;34.55;;;3.10;68.30;;;;;;5071509;28;20024;-71
2021/12/27 02:02:51;;;;;;;62.08;34.10;;;3.20;68.10;;;;;;5070269;28;20024;-71
2021/12/27 02:05:17;;;;;;;58.97;32.97;;;3.20;67.40;;;;;;5077465;28;20097;-71
2021/12/27 02:07:44;;;;;;;62.88;33.53;;;3.20;67.70;;;;;;5072308;28;20044;-72
2021/12/27 02:10:11;;;;;;;60.40;32.55;;;3.20;67.90;;;;;;5069834;28;20048;-72
2021/12/27 02:12:38;;;;;;;60.78;33.65;;;3.30;67.60;;;;;;5071690;28;20477;-71
2021/12/27 02:15:09;;;;;;;63.75;34.35;;;3.30;67.40;;;;;;5071240;28;20107;-72
2021/12/27 02:17:36;;;;;;;63.28;34.80;;;3.40;67.30;;;;;;5071378;28;20482;-71
2021/12/27 02:20:06;;;;;;;65.65;33.88;;;3.40;67.10;;;;;;5071628;28;20028;-73
2021/12/27 02:25:17;;;;;;;68.10;34.70;;;3.40;66.90;;;;;;5071749;28;20047;-72
2021/12/27 02:27:44;;;;;;;68.63;36.72;;;3.40;67.40;;;;;;5071048;28;20062;-71
2021/12/27 02:30:14;;;;;;;71.22;35.03;;;3.40;66.90;;;;;;5070665;28;20108;-71
2021/12/27 02:32:55;;;;;;;63.83;34.58;;;3.50;66.80;;;;;;5071763;28;20033;-73
2021/12/27 02:35:30;;;;;;;66.28;35.13;;;3.40;66.70;;;;;;5070854;28;20578;-70
2021/12/27 02:37:58;;;;;;;64.75;36.20;;;3.40;67.00;;;;;;5069181;28;20021;-71
2021/12/27 02:40:26;;;;;;;60.30;34.45;;;3.40;67.00;;;;;;5091692;28;20091;-71
2021/12/27 02:43:05;;;;;;;63.05;34.60;;;3.50;67.00;;;;;;5076522;28;20532;-71
2021/12/27 02:45:39;;;;;;;64.88;34.10;;;3.40;66.80;;;;;;5067460;28;20040;-71
2021/12/27 02:48:06;;;;;;;64.82;35.45;;;3.30;66.90;;;;;;5051536;28;20074;-76
2021/12/27 02:50:33;;;;;;;61.10;33.65;;;3.30;67.30;;;;;;5065438;28;20039;-71
2021/12/27 02:52:59;;;;;;;72.57;36.67;;;3.40;67.40;;;;;;5070158;28;20048;-70
2021/12/27 02:55:26;;;;;;;69.95;37.53;;;3.40;67.20;;;;;;5074394;28;20016;-71
2021/12/27 02:57:52;;;;;;;70.30;35.80;;;3.50;67.10;;;;;;5069938;28;20024;-72
2021/12/27 03:00:27;;;;;;;70.35;38.75;;;3.50;67.00;;;;;;5070542;28;20029;-72
2021/12/27 03:02:54;;;;;;;64.13;36.90;;;3.40;66.90;;;;;;5070126;28;20389;-72
2021/12/27 03:05:21;;;;;;;71.05;36.47;;;3.40;67.40;;;;;;5068975;28;20377;-71
2021/12/27 03:07:49;;;;;;;74.90;38.00;;;3.40;67.10;;;;;;5070373;28;20020;-71
2021/12/27 03:10:19;;;;;;;70.78;37.20;;;3.40;67.00;;;;;;5070373;28;20070;-71
2021/12/27 03:12:45;;;;;;;70.30;37.22;;;3.40;67.40;;;;;;5069989;28;20063;-71
2021/12/27 03:15:13;;;;;;;72.22;36.33;;;3.40;67.30;;;;;;5069290;28;20484;-71
2021/12/27 03:17:59;;;;;;;67.88;37.40;;;3.40;67.40;;;;;;5071313;28;20035;-71
2021/12/27 03:20:27;;;;;;;72.28;37.90;;;3.40;67.20;;;;;;5070717;28;20110;-71
2021/12/27 03:22:53;;;;;;;67.07;35.67;;;3.50;67.30;;;;;;5071017;28;20544;-71
2021/12/27 03:25:25;;;;;;;64.03;36.45;;;3.40;67.00;;;;;;5070114;28;20098;-71
2021/12/27 03:27:51;;;;;;;68.72;37.10;;;3.50;67.20;;;;;;5078984;28;20119;-71
2021/12/27 03:30:26;;;;;;;72.72;37.75;;;3.50;67.30;;;;;;5089560;28;20074;-71
2021/12/27 03:32:53;;;;;;;69.20;35.67;;;3.50;67.20;;;;;;5072174;28;20041;-71
2021/12/27 03:35:29;;;;;;;69.72;36.33;;;3.50;67.20;;;;;;5068563;28;20032;-71
2021/12/27 03:37:58;;;;;;;66.95;37.72;;;3.50;67.20;;;;;;5070549;28;20044;-73
2021/12/27 03:40:25;;;;;;;74.30;37.65;;;3.40;67.30;;;;;;5070390;28;20028;-72
2021/12/27 03:42:51;;;;;;;67.72;36.83;;;3.40;67.40;;;;;;5070946;28;20500;-71
2021/12/27 03:45:19;;;;;;;68.28;36.45;;;3.50;67.50;;;;;;5076839;28;20054;-71
2021/12/27 03:47:45;;;;;;;74.07;38.35;;;3.50;67.40;;;;;;5075538;28;20028;-71
2021/12/27 03:50:10;;;;;;;69.22;36.65;;;3.50;67.30;;;;;;5070228;28;20035;-74
2021/12/27 03:52:37;;;;;;;65.70;36.03;;;3.60;67.30;;;;;;5069903;28;20055;-71
2021/12/27 03:55:07;;;;;;;71.40;37.22;;;3.50;67.20;;;;;;5069310;28;20032;-72
2021/12/27 03:57:35;;;;;;;64.20;35.47;;;3.40;67.50;;;;;;5069123;28;20119;-72
2021/12/27 04:00:31;;;;;;;69.63;36.28;;;3.50;67.60;;;;;;5065908;28;20021;-71
2021/12/27 04:02:59;;;;;;;63.13;36.47;;;3.40;67.30;;;;;;5069000;28;20036;-71
2021/12/27 04:05:25;;;;;;;64.47;35.22;;;3.40;67.70;;;;;;5070007;28;20051;-71
2021/12/27 04:08:01;;;;;;;68.18;36.00;;;3.50;67.90;;;;;;5069725;28;20037;-71
2021/12/27 04:10:28;;;;;;;67.72;35.40;;;3.50;67.80;;;;;;5070267;28;20045;-71
2021/12/27 04:12:55;;;;;;;67.97;36.78;;;3.50;67.60;;;;;;5070095;28;20050;-71
2021/12/27 04:15:21;;;;;;;65.90;36.95;;;3.50;67.70;;;;;;5070039;28;20028;-71
2021/12/27 04:17:47;;;;;;;64.32;36.35;;;3.50;67.60;;;;;;5075501;28;20040;-71
2021/12/27 04:20:13;;;;;;;67.93;36.55;;;3.60;67.40;;;;;;5073516;28;20093;-72
2021/12/27 04:22:38;;;;;;;66.65;35.65;;;3.50;67.30;;;;;;5068745;28;20486;-71
2021/12/27 04:25:04;;;;;;;65.20;34.85;;;3.30;67.90;;;;;;5070519;28;20028;-71
2021/12/27 04:27:30;;;;;;;66.35;36.00;;;3.30;68.40;;;;;;5073248;28;20430;-71
2021/12/27 04:29:56;;;;;;;64.32;34.17;;;3.30;68.30;;;;;;5073283;28;20028;-71
2021/12/27 04:32:22;;;;;;;65.95;35.00;;;3.40;68.30;;;;;;5072373;28;20035;-71
2021/12/27 04:34:48;;;;;;;63.72;34.47;;;3.40;68.00;;;;;;5079304;28;20037;-71
2021/12/27 04:37:14;;;;;;;65.38;36.10;;;3.50;68.60;;;;;;5072967;28;20048;-73
2021/12/27 04:39:40;;;;;;;64.22;34.58;;;3.50;67.80;;;;;;5073934;28;20500;-71
2021/12/27 04:42:07;;;;;;;62.33;35.33;;;3.50;67.50;;;;;;5074139;28;20104;-71
2021/12/27 04:44:33;;;;;;;64.13;34.45;;;3.40;68.20;;;;;;5071668;28;20090;-72
2021/12/27 04:46:59;;;;;;;65.63;35.55;;;3.40;68.20;;;;;;5073527;28;20032;-71
2021/12/27 04:49:25;;;;;;;65.85;34.30;;;3.20;68.30;;;;;;5073098;28;20021;-71
2021/12/27 04:51:50;;;;;;;62.40;34.38;;;3.30;68.90;;;;;;5090736;28;20396;-71
2021/12/27 04:54:16;;;;;;;62.88;34.35;;;3.40;68.70;;;;;;5086190;28;20108;-72
2021/12/27 04:56:42;;;;;;;69.22;35.97;;;3.40;68.40;;;;;;5073911;28;20090;-71
2021/12/27 04:59:08;;;;;;;73.72;37.85;;;3.50;69.00;;;;;;5073516;28;20035;-71
2021/12/27 05:01:34;;;;;;;70.32;36.13;;;3.50;68.20;;;;;;5072665;28;20171;-71
2021/12/27 05:03:59;;;;;;;67.00;36.00;;;3.40;68.10;;;;;;5073759;28;20098;-71
2021/12/27 05:06:27;;;;;;;76.95;38.17;;;3.50;68.20;;;;;;5072888;28;20435;-72
2021/12/27 05:08:53;;;;;;;63.20;35.35;;;3.50;68.30;;;;;;5073835;28;20024;-71
2021/12/27 05:11:20;;;;;;;69.22;35.67;;;3.30;68.20;;;;;;5072889;28;20063;-71
2021/12/27 05:13:46;;;;;;;68.00;36.72;;;3.30;68.70;;;;;;5073047;28;20142;-71
2021/12/27 05:16:11;;;;;;;61.33;35.42;;;3.20;69.10;;;;;;5072820;28;20103;-71
2021/12/27 05:18:37;;;;;;;70.07;38.75;;;3.20;69.20;;;;;;5072594;28;20036;-71
2021/12/27 05:21:03;;;;;;;67.70;36.65;;;3.40;69.10;;;;;;5073025;28;20016;-70
2021/12/27 05:23:31;;;;;;;65.78;35.45;;;3.40;68.90;;;;;;5081237;28;20481;-70
2021/12/27 05:25:57;;;;;;;72.65;38.53;;;3.50;68.70;;;;;;5073320;28;20109;-70
2021/12/27 05:28:22;;;;;;;70.13;38.88;;;3.50;68.80;;;;;;5071291;28;20452;-71
2021/12/27 05:30:51;;;;;;;78.65;40.25;;;3.40;68.70;;;;;;5073292;28;20033;-71
2021/12/27 05:33:19;;;;;;;67.97;37.85;;;3.50;68.90;;;;;;5071491;28;20040;-73
2021/12/27 05:35:46;;;;;;;68.07;36.80;;;3.50;68.80;;;;;;5071773;28;20029;-72
2021/12/27 05:38:12;;;;;;;67.57;37.53;;;3.40;68.90;;;;;;5078081;28;20380;-70
2021/12/27 05:40:38;;;;;;;62.50;34.72;;;3.40;69.30;;;;;;5073679;28;20291;-71
2021/12/27 05:43:06;;;;;;;62.88;34.95;;;3.40;69.20;;;;;;5071643;28;20578;-71
2021/12/27 05:45:33;;;;;;;67.85;36.65;;;3.40;69.40;;;;;;5071120;28;20028;-70
2021/12/27 05:47:59;;;;;;;65.80;35.13;;;3.30;69.60;;;;;;5071762;28;20036;-71
2021/12/27 05:50:25;;;;;;;65.47;35.72;;;3.20;69.80;;;;;;5072411;28;20373;-70
2021/12/27 05:52:52;;;;;;;65.70;34.60;;;3.20;70.10;;;;;;5071176;28;20032;-70
2021/12/27 05:55:18;;;;;;;64.30;35.00;;;3.20;70.30;;;;;;5072495;28;20032;-73
2021/12/27 05:57:44;;;;;;;60.90;33.53;;;3.20;70.40;;;;;;5072466;28;20099;-71
2021/12/27 06:00:13;;;;;;;60.38;33.30;;;3.30;70.20;;;;;;5072004;28;20494;-70
2021/12/27 06:02:39;;;;;;;56.92;31.98;;;3.30;70.30;;;;;;5072120;28;20212;-71
2021/12/27 06:05:05;;;;;;;61.20;32.80;;;3.30;70.40;;;;;;5079017;28;20051;-71
2021/12/27 06:07:31;;;;;;;55.50;30.65;;;3.30;70.40;;;;;;5068854;28;20051;-72
2021/12/27 06:09:58;;;;;;;58.55;31.63;;;3.30;70.30;;;;;;5071284;28;20083;-70
2021/12/27 06:12:25;;;;;;;56.28;29.73;;;3.40;70.30;;;;;;5070568;28;20033;-70
2021/12/27 06:14:50;;;;;;;55.97;32.42;;;3.40;70.20;;;;;;5074038;28;20037;-72
2021/12/27 06:17:16;;;;;;;55.13;31.08;;;3.50;70.10;;;;;;5072266;28;20020;-72
2021/12/27 06:19:42;;;;;;;54.40;29.25;;;3.50;70.00;;;;;;5069818;28;20032;-70
2021/12/27 06:22:08;;;;;;;56.22;29.83;;;3.50;69.60;;;;;;5072108;28;20058;-72
2021/12/27 06:24:33;;;;;;;49.35;28.20;;;3.50;69.80;;;;;;5071262;28;20121;-72
2021/12/27 06:26:59;;;;;;;50.97;28.77;;;3.50;69.80;;;;;;5071847;28;20029;-71
2021/12/27 06:29:25;;;;;;;54.80;28.65;;;3.50;69.70;;;;;;5070973;28;20021;-71
2021/12/27 06:31:51;;;;;;;50.00;27.73;;;3.50;69.80;;;;;;5071436;28;20374;-72
2021/12/27 06:34:17;;;;;;;49.35;28.00;;;3.40;70.00;;;;;;5072091;28;20401;-71
2021/12/27 06:36:43;;;;;;;71.00;26.08;;;3.40;70.00;;;;;;5079382;28;20528;-72
2021/12/27 06:39:09;;;;;;;47.55;27.75;;;3.40;70.20;;;;;;5092498;28;20487;-70
2021/12/27 06:41:35;;;;;;;50.22;28.30;;;3.30;70.10;;;;;;5091031;28;20023;-71
2021/12/27 06:44:01;;;;;;;53.80;27.15;;;3.30;70.50;;;;;;5091913;28;20036;-71
2021/12/27 06:46:27;;;;;;;47.10;25.95;;;3.30;70.70;;;;;;5091179;28;20093;-71
2021/12/27 06:48:53;;;;;;;50.58;27.00;;;3.40;70.80;;;;;;5089951;28;20453;-71
2021/12/27 06:51:19;;;;;;;54.92;27.35;;;3.50;70.60;;;;;;5090020;28;20027;-71
2021/12/27 06:53:44;;;;;;;48.35;25.40;;;3.50;70.20;;;;;;5091761;28;20035;-71
2021/12/27 06:56:10;;;;;;;44.50;25.90;;;3.50;70.10;;;;;;5091568;28;20472;-71
2021/12/27 06:58:36;;;;;;;47.60;27.23;;;3.40;70.20;;;;;;5090064;28;20028;-72
2021/12/27 07:01:03;;;;;;;46.22;26.33;;;3.50;70.30;;;;;;5091559;28;20032;-72
2021/12/27 07:03:28;;;;;;;46.88;27.63;;;3.50;70.40;;;;;;5088996;28;20040;-71
2021/12/27 07:05:55;;;;;;;45.83;25.67;;;3.50;70.40;;;;;;5090769;28;20053;-70
2021/12/27 07:08:22;;;;;;;45.28;25.30;;;3.60;70.30;;;;;;5091658;28;20024;-70
2021/12/27 07:10:49;;;;;;;49.35;24.80;;;3.50;70.20;;;;;;5091042;28;20052;-70
2021/12/27 07:13:15;;;;;;;40.70;23.85;;;3.60;70.40;;;;;;5091656;28;20138;-70
2021/12/27 07:15:42;;;;;;;44.50;24.88;;;3.60;70.20;;;;;;5072864;28;20028;-72
2021/12/27 07:18:09;;;;;;;42.35;24.00;;;3.60;70.30;;;;;;5090430;28;20107;-71
2021/12/27 07:20:55;;;;;;;44.17;23.55;;;3.60;70.40;;;;;;5089432;28;20031;-70
2021/12/27 07:23:21;;;;;;;39.80;22.13;;;3.70;70.50;;;;;;5091834;28;20074;-71
2021/12/27 07:25:47;;;;;;;40.30;23.25;;;3.70;70.00;;;;;;5090711;28;20297;-71
2021/12/27 07:28:13;;;;;;;39.30;22.30;;;3.70;70.00;;;;;;5091275;28;20028;-71
2021/12/27 07:30:39;;;;;;;39.42;22.20;;;3.70;70.10;;;;;;5090938;28;20020;-71
2021/12/27 07:33:05;;;;;;;35.25;20.40;;;3.90;70.30;;;;;;5090266;28;20028;-70
2021/12/27 07:35:31;;;;;;;35.88;21.10;;;3.90;69.80;;;;;;5088515;28;20538;-72
2021/12/27 07:37:56;;;;;;;35.95;20.88;;;3.90;69.80;;;;;;5091420;28;20461;-70
2021/12/27 07:40:22;;;;;;;33.38;20.40;;;4.00;69.90;;;;;;5091424;28;20171;-70
2021/12/27 07:42:48;;;;;;;32.35;18.52;;;4.00;69.60;;;;;;5090758;28;20032;-70
2021/12/27 07:45:14;;;;;;;39.63;19.15;;;4.00;69.10;;;;;;5090839;28;20028;-71
2021/12/27 07:47:40;;;;;;;34.30;19.45;;;4.00;69.20;;;;;;5090738;28;20029;-70
2021/12/27 07:50:06;;;;;;;34.28;19.17;;;4.10;69.40;;;;;;5090102;28;20024;-70
2021/12/27 07:52:32;;;;;;;30.13;19.23;;;4.10;69.30;;;;;;5088655;28;20028;-71
2021/12/27 07:54:58;;;;;;;33.15;20.48;;;4.20;69.20;;;;;;5091192;28;20024;-70
2021/12/27 07:57:23;;;;;;;30.35;17.45;;;4.30;68.70;;;;;;5090013;28;20120;-71
2021/12/27 07:59:50;;;;;;;33.88;19.40;;;4.20;68.80;;;;;;5089835;28;20736;-71
2021/12/27 08:02:16;;;;;;;30.83;16.77;;;4.20;68.90;;;;;;5093444;28;20028;-70
2021/12/27 08:04:42;;;;;;;30.35;18.13;;;4.20;69.10;;;;;;5094310;28;20041;-71
2021/12/27 08:07:08;;;;;;;29.05;17.05;;;4.20;69.00;;;;;;5093255;28;20431;-70
2021/12/27 08:09:34;;;;;;;27.98;16.70;;;4.20;68.90;;;;;;5094164;28;20031;-71
2021/12/27 08:12:00;;;;;;;30.83;17.17;;;4.20;68.90;;;;;;5095247;28;20393;-71
2021/12/27 08:14:26;;;;;;;28.02;17.00;;;4.30;68.80;;;;;;5067249;28;20085;-65
2021/12/27 08:16:52;;;;;;;32.42;19.05;;;4.30;68.50;;;;;;5072793;28;20025;-68
2021/12/27 08:19:17;;;;;;;29.10;17.30;;;4.20;68.40;;;;;;5074561;28;20024;-66
2021/12/27 08:21:43;;;;;;;30.13;19.23;;;4.20;69.00;;;;;;5074269;28;20023;-65
2021/12/27 08:24:09;;;;;;;30.35;17.85;;;4.30;69.20;;;;;;5074684;28;20108;-66
2021/12/27 08:26:36;;;;;;;29.20;17.83;;;4.30;69.10;;;;;;5073760;28;20462;-72
2021/12/27 08:29:06;;;;;;;33.35;19.92;;;4.40;69.00;;;;;;5074125;28;20025;-66
2021/12/27 08:31:32;;;;;;;38.38;18.42;;;4.40;68.80;;;;;;5073841;28;20517;-66
2021/12/27 08:33:57;;;;;;;29.25;17.73;;;4.50;68.70;;;;;;5073146;28;20103;-66
2021/12/27 08:36:23;;;;;;;27.35;17.75;;;4.50;68.20;;;;;;5073533;28;20099;-70
2021/12/27 08:38:50;;;;;;;31.55;18.30;;;4.50;68.20;;;;;;5071280;28;20164;-68
2021/12/27 08:41:17;;;;;;;30.35;17.70;;;4.50;68.20;;;;;;5089679;28;20024;-67
2021/12/27 08:43:44;;;;;;;31.33;17.60;;;4.50;68.20;;;;;;5069480;28;20032;-71
2021/12/27 08:46:10;;;;;;;35.70;19.13;;;4.50;68.20;;;;;;5097896;28;20029;-67
2021/12/27 08:48:38;;;;;;;30.42;18.13;;;4.50;68.20;;;;;;5053410;28;20021;-69
2021/12/27 08:51:04;;;;;;;32.38;18.40;;;4.50;68.30;;;;;;5068810;28;20021;-69
2021/12/27 08:53:30;;;;;;;30.08;18.05;;;4.50;68.30;;;;;;5072844;28;20123;-68
2021/12/27 08:55:57;;;;;;;35.03;20.42;;;4.50;68.10;;;;;;5070261;28;20025;-66
2021/12/27 08:58:23;;;;;;;30.67;18.27;;;4.40;68.00;;;;;;5073447;28;20076;-72
2021/12/27 09:00:49;;;;;;;30.17;18.38;;;4.40;68.30;;;;;;5070549;28;20032;-67
2021/12/27 09:03:14;;;;;;;31.70;19.48;;;4.40;68.40;;;;;;5074879;28;20077;-69
2021/12/27 09:05:42;;;;;;;30.23;18.23;;;4.40;68.40;;;;;;5083361;28;20388;-69
2021/12/27 09:08:08;;;;;;;33.00;19.20;;;4.40;68.50;;;;;;5071418;28;20036;-71
2021/12/27 09:10:34;;;;;;;31.38;18.92;;;4.40;68.60;;;;;;5072446;28;20496;-75
2021/12/27 09:13:00;;;;;;;29.13;18.20;;;4.60;68.70;;;;;;5070750;28;20028;-68
2021/12/27 09:15:27;;;;;;;31.05;18.25;;;4.60;67.50;;;;;;5071861;28;20078;-67
2021/12/27 09:17:53;;;;;;;30.35;18.40;;;4.60;67.70;;;;;;5070799;28;20090;-67
2021/12/27 09:20:20;;;;;;;30.67;18.73;;;4.60;68.00;;;;;;5084355;28;20056;-72
2021/12/27 09:22:45;;;;;;;35.05;20.88;;;4.70;68.10;;;;;;5072778;28;20448;-70
2021/12/27 09:25:11;;;;;;;30.27;19.05;;;4.80;67.80;;;;;;5070088;28;20032;-74
2021/12/27 09:27:37;;;;;;;30.98;18.55;;;4.90;67.00;;;;;;5070282;28;20017;-69
2021/12/27 09:30:04;;;;;;;30.25;19.40;;;4.90;67.00;;;;;;5072456;28;20070;-69
2021/12/27 09:32:29;;;;;;;30.50;18.75;;;5.00;66.90;;;;;;5071452;28;20050;-60
2021/12/27 09:34:55;;;;;;;29.40;18.63;;;5.00;66.20;;;;;;5070107;28;20107;-70
2021/12/27 09:37:27;;;;;;;32.50;18.40;;;4.90;65.90;;;;;;5076788;28;20025;-67
2021/12/27 09:39:55;;;;;;;36.47;22.10;;;5.00;66.20;;;;;;5072645;28;20029;-69
2021/12/27 09:42:23;;;;;;;28.63;18.73;;;5.10;66.00;;;;;;5073350;28;20028;-69
2021/12/27 09:44:50;;;;;;;38.47;22.05;;;5.20;65.50;;;;;;5072850;28;20111;-71
2021/12/27 09:47:16;;;;;;;33.03;19.30;;;5.30;65.20;;;;;;5073081;28;20016;-70
2021/12/27 09:49:42;;;;;;;32.15;19.25;;;5.40;64.50;;;;;;5072563;28;20456;-70
2021/12/27 09:52:08;;;;;;;31.15;18.38;;;5.50;64.80;;;;;;5072611;28;20073;-69
2021/12/27 09:54:34;;;;;;;32.33;19.63;;;5.60;62.60;;;;;;5082159;28;20064;-71
2021/12/27 09:57:00;;;;;;;30.55;19.00;;;5.60;63.00;;;;;;5071384;28;20017;-69
2021/12/27 09:59:26;;;;;;;33.95;18.77;;;5.60;62.80;;;;;;5072952;28;20017;-70
2021/12/27 10:01:53;;;;;;;32.33;20.20;;;5.50;62.60;;;;;;5070707;28;20024;-70
2021/12/27 10:04:20;;;;;;;28.67;17.42;;;5.40;62.60;;;;;;5082807;28;20035;-71
2021/12/27 10:06:47;;;;;;;34.38;18.75;;;5.40;62.60;;;;;;5073706;28;20029;-71
2021/12/27 10:09:13;;;;;;;29.17;18.25;;;5.30;62.50;;;;;;5073493;28;20032;-70
2021/12/27 10:11:46;;;;;;;34.22;18.20;;;5.10;63.00;;;;;;5070399;28;20049;-71
2021/12/27 10:14:15;;;;;;;30.55;18.23;;;5.10;63.40;;;;;;5070689;28;20067;-71
2021/12/27 10:16:44;;;;;;;29.67;17.80;;;5.20;63.30;;;;;;5070381;28;20063;-70
2021/12/27 10:19:15;;;;;;;29.90;17.15;;;5.20;63.20;;;;;;5071497;28;20016;-72
2021/12/27 10:21:41;;;;;;;33.05;18.17;;;5.20;63.00;;;;;;5099541;28;20035;-70
2021/12/27 10:24:27;;;;;;;33.15;18.42;;;5.20;63.00;;;;;;5068084;28;20762;-69
2021/12/27 10:26:54;;;;;;;32.88;18.77;;;5.20;62.20;;;;;;5069447;28;20040;-72
2021/12/27 10:29:23;;;;;;;33.45;20.90;;;5.30;62.60;;;;;;5070886;28;20075;-71
2021/12/27 10:31:57;;;;;;;30.38;17.33;;;5.40;62.40;;;;;;5083178;28;20134;-71
2021/12/27 10:34:27;;;;;;;29.38;18.80;;;5.50;61.80;;;;;;5064409;28;20057;-72
2021/12/27 10:37:13;;;;;;;35.58;18.50;;;5.50;61.30;;;;;;5066221;28;20043;-71
2021/12/27 10:39:44;;;;;;;35.63;22.17;;;5.60;61.10;;;;;;5069418;28;20456;-71
2021/12/27 10:42:11;;;;;;;31.40;19.05;;;5.70;60.60;;;;;;5063862;28;20474;-72
2021/12/27 10:44:37;;;;;;;28.90;17.98;;;5.70;60.70;;;;;;5069387;28;20473;-70
2021/12/27 10:47:22;;;;;;;37.38;19.23;;;5.70;60.80;;;;;;5067550;28;20329;-65
2021/12/27 10:49:48;;;;;;;36.30;18.52;;;5.80;60.80;;;;;;5082131;28;20028;-66
2021/12/27 10:52:14;;;;;;;30.00;17.33;;;5.90;61.00;;;;;;5067948;28;20040;-66
2021/12/27 10:54:40;;;;;;;27.92;17.75;;;5.90;60.70;;;;;;5067177;28;20020;-63
2021/12/27 10:57:06;;;;;;;29.33;17.88;;;5.90;60.80;;;;;;5067053;28;20073;-71
2021/12/27 10:59:32;;;;;;;30.17;17.13;;;5.90;61.00;;;;;;5083878;28;20024;-66
2021/12/27 11:02:11;;;;;;;30.08;18.58;;;5.90;61.20;;;;;;5067940;28;20466;-64
2021/12/27 11:04:38;;;;;;;31.88;18.75;;;6.00;61.20;;;;;;5067610;28;20020;-70
2021/12/27 11:07:05;;;;;;;31.60;18.98;;;6.10;60.80;;;;;;5081802;28;20024;-64
2021/12/27 11:09:35;;;;;;;30.73;18.02;;;6.00;61.00;;;;;;5069734;28;20013;-69
2021/12/27 11:12:02;;;;;;;28.98;18.67;;;6.00;61.60;;;;;;5067602;28;20503;-74
2021/12/27 11:14:28;;;;;;;29.73;18.88;;;6.00;61.70;;;;;;5071325;28;20042;-73
2021/12/27 11:16:55;;;;;;;32.05;18.13;;;6.10;61.50;;;;;;5064788;28;20020;-72
2021/12/27 11:19:20;;;;;;;31.75;19.52;;;6.20;61.20;;;;;;5066522;28;20033;-71
2021/12/27 11:21:49;;;;;;;33.58;18.75;;;6.30;60.80;;;;;;5065266;28;20032;-71
2021/12/27 11:24:16;;;;;;;34.47;19.63;;;6.30;60.60;;;;;;5070181;28;20036;-68
2021/12/27 11:26:43;;;;;;;29.05;17.92;;;6.30;61.00;;;;;;5067965;28;20035;-71
2021/12/27 11:29:16;;;;;;;32.00;18.13;;;6.40;60.40;;;;;;5069862;28;20060;-69
2021/12/27 11:31:44;;;;;;;32.75;19.70;;;6.40;60.10;;;;;;5066564;28;20020;-71
2021/12/27 11:34:13;;;;;;;32.88;19.73;;;6.30;59.90;;;;;;5070940;28;20051;-71
2021/12/27 11:36:41;;;;;;;31.45;19.23;;;6.40;60.10;;;;;;5050530;28;20036;-71
2021/12/27 11:39:25;;;;;;;30.85;19.33;;;6.60;59.80;;;;;;5070863;28;20028;-71
2021/12/27 11:42:05;;;;;;;31.40;18.55;;;6.70;59.80;;;;;;5049127;28;20086;-71
2021/12/27 11:44:44;;;;;;;30.73;18.08;;;6.80;58.80;;;;;;5051191;28;20029;-73
2021/12/27 11:47:22;;;;;;;31.92;19.10;;;6.70;58.90;;;;;;5083598;28;20116;-70
2021/12/27 11:49:51;;;;;;;31.85;19.42;;;6.50;59.40;;;;;;5055866;28;20021;-72
2021/12/27 11:52:27;;;;;;;29.33;17.55;;;6.30;59.50;;;;;;5071275;28;20028;-72
2021/12/27 11:54:59;;;;;;;28.85;17.58;;;6.20;60.10;;;;;;5070370;28;20047;-72
2021/12/27 11:57:38;;;;;;;33.53;19.20;;;6.30;60.40;;;;;;5071091;28;20020;-70
2021/12/27 12:00:21;;;;;;;32.13;18.25;;;6.30;60.20;;;;;;5069427;28;20082;-71
2021/12/27 12:02:51;;;;;;;32.80;19.60;;;6.30;60.40;;;;;;5070521;28;20027;-69
2021/12/27 12:05:47;;;;;;;33.45;19.77;;;6.30;60.40;;;;;;5070399;28;20024;-71
2021/12/27 12:08:16;;;;;;;33.63;18.75;;;6.20;60.70;;;;;;5080574;28;20055;-70
2021/12/27 12:10:59;;;;;;;36.60;19.27;;;6.40;61.00;;;;;;5068319;28;20124;-70
2021/12/27 12:13:28;;;;;;;35.50;19.95;;;6.40;60.60;;;;;;5070705;28;20021;-69
2021/12/27 12:15:58;;;;;;;33.38;18.92;;;6.30;60.60;;;;;;5069170;28;20120;-65
2021/12/27 12:18:26;;;;;;;33.45;19.38;;;6.30;61.00;;;;;;5071011;28;20040;-69
2021/12/27 12:20:52;;;;;;;34.63;21.45;;;6.20;60.60;;;;;;5070045;28;20016;-68
2021/12/27 12:23:18;;;;;;;35.50;20.73;;;6.20;61.20;;;;;;5072933;28;20033;-62
2021/12/27 12:25:43;;;;;;;37.65;20.77;;;6.20;61.40;;;;;;5069410;28;20443;-70
2021/12/27 12:28:17;;;;;;;36.65;21.05;;;6.20;61.10;;;;;;5062831;28;20392;-69
2021/12/27 12:30:53;;;;;;;37.50;20.05;;;6.10;61.10;;;;;;5069214;28;20101;-71
2021/12/27 12:33:20;;;;;;;39.53;21.52;;;6.10;61.30;;;;;;5070150;28;20103;-64
2021/12/27 12:36:04;;;;;;;44.78;20.90;;;6.00;61.30;;;;;;5069417;28;20027;-69
2021/12/27 12:38:36;;;;;;;;;;;6.00;61.40;;;;;;5070793;28;20126;-67
2021/12/27 12:41:08;;;;;;;36.75;21.27;;;5.90;61.60;;;;;;5090517;28;20332;-65
2021/12/27 12:43:43;;;;;;;41.65;22.63;;;5.90;61.70;;;;;;5090829;28;20136;-65
2021/12/27 12:46:24;;;;;;;41.38;22.77;;;6.00;61.70;;;;;;5079881;28;20374;-65